createdAt,value
2023-01-31T00:00:35.356Z,1.6
2023-01-31T00:01:37.405Z,1.6
2023-01-31T00:02:39.731Z,1.4
2023-01-31T00:03:42.061Z,1.2
2023-01-31T00:04:45.339Z,1.4
2023-01-31T00:05:48.731Z,1.5
2023-01-31T00:06:52.018Z,1.4
2023-01-31T00:07:55.287Z,1.3
2023-01-31T00:08:58.548Z,1.4
2023-01-31T00:10:01.810Z,1.3
2023-01-31T00:11:05.065Z,1.3
2023-01-31T00:12:08.362Z,1.2
2023-01-31T00:13:11.666Z,1.2
2023-01-31T00:14:14.954Z,1.2
2023-01-31T00:15:18.263Z,1.4
2023-01-31T00:16:21.551Z,1.4
2023-01-31T00:17:23.845Z,1.4
2023-01-31T00:19:30.440Z,1.2
2023-01-31T00:20:33.770Z,1.5
2023-01-31T00:21:37.092Z,1.3
2023-01-31T00:22:40.314Z,1.3
2023-01-31T00:23:43.586Z,1.3
2023-01-31T00:24:46.885Z,1.2
2023-01-31T00:25:49.204Z,1.1
2023-01-31T00:26:51.530Z,1.2
2023-01-31T00:27:53.854Z,1.3
2023-01-31T00:28:56.139Z,1.3
2023-01-31T00:29:59.538Z,1.2
2023-01-31T00:31:02.714Z,1.3
2023-01-31T00:32:06.015Z,1.1
2023-01-31T00:33:09.349Z,1.2
2023-01-31T00:34:12.604Z,1.2
2023-01-31T00:35:15.894Z,1.2
2023-01-31T00:36:19.949Z,1
2023-01-31T00:37:23.271Z,1.1
2023-01-31T00:38:26.475Z,1.1
2023-01-31T00:39:29.760Z,1.1
2023-01-31T00:40:33.048Z,1
2023-01-31T00:41:36.343Z,1.1
2023-01-31T00:42:38.630Z,1
2023-01-31T00:43:41.944Z,1.2
2023-01-31T00:44:45.241Z,1.1
2023-01-31T00:45:48.559Z,1.2
2023-01-31T00:46:51.905Z,1.1
2023-01-31T00:47:55.115Z,1.1
2023-01-31T00:48:58.400Z,1
2023-01-31T00:50:00.716Z,1
2023-01-31T00:51:03.029Z,1
2023-01-31T00:52:06.292Z,1
2023-01-31T00:53:09.599Z,1.2
2023-01-31T00:54:12.892Z,1.1
2023-01-31T00:55:15.218Z,1.1
2023-01-31T00:56:17.625Z,1.1
2023-01-31T00:57:20.879Z,1
2023-01-31T00:58:24.093Z,1.2
2023-01-31T00:59:27.388Z,1.1
2023-01-31T01:00:30.669Z,1
2023-01-31T01:01:33.973Z,1
2023-01-31T01:02:37.248Z,1.1
2023-01-31T01:03:40.571Z,1.1
2023-01-31T01:04:43.843Z,1.1
2023-01-31T01:05:47.191Z,1.1
2023-01-31T01:06:50.446Z,1.1
2023-01-31T01:07:53.798Z,1.1
2023-01-31T01:08:57.094Z,1
2023-01-31T01:09:59.360Z,1.1
2023-01-31T01:11:02.722Z,0.9
2023-01-31T01:12:05.939Z,1.2
2023-01-31T01:13:09.205Z,0.9
2023-01-31T01:14:12.487Z,1.3
2023-01-31T01:15:15.774Z,1.1
2023-01-31T01:16:19.085Z,0.9
2023-01-31T01:17:23.200Z,1.2
2023-01-31T01:18:25.561Z,0.9
2023-01-31T01:19:27.786Z,1
2023-01-31T01:20:31.104Z,0.9
2023-01-31T01:21:33.402Z,1
2023-01-31T01:22:35.691Z,0.9
2023-01-31T01:23:38.980Z,0.9
2023-01-31T01:24:42.271Z,0.8
2023-01-31T01:25:45.581Z,0.9
2023-01-31T01:26:48.858Z,0.7
2023-01-31T01:27:52.147Z,0.7
2023-01-31T01:28:55.557Z,0.7
2023-01-31T01:29:58.765Z,0.7
2023-01-31T01:31:02.002Z,0.6
2023-01-31T01:32:05.390Z,0.8
2023-01-31T01:33:08.640Z,0.7
2023-01-31T01:34:12.003Z,0.8
2023-01-31T01:35:15.348Z,0.7
2023-01-31T01:36:17.523Z,0.7
2023-01-31T01:37:20.779Z,0.6
2023-01-31T01:38:24.114Z,0.9
2023-01-31T01:39:27.469Z,0.7
2023-01-31T01:40:30.676Z,0.7
2023-01-31T01:41:33.956Z,0.6
2023-01-31T01:42:37.231Z,0.6
2023-01-31T01:43:39.655Z,0.6
2023-01-31T01:44:42.027Z,0.5
2023-01-31T01:45:44.184Z,0.8
2023-01-31T01:46:46.496Z,0.6
2023-01-31T01:47:49.802Z,0.5
2023-01-31T01:48:53.074Z,0.6
2023-01-31T01:49:56.391Z,0.7
2023-01-31T01:50:59.681Z,0.6
2023-01-31T01:52:02.953Z,0.5
2023-01-31T01:53:06.233Z,0.6
2023-01-31T01:54:09.518Z,0.8
2023-01-31T01:55:12.919Z,0.6
2023-01-31T01:56:16.198Z,0.6
2023-01-31T01:57:19.403Z,0.5
2023-01-31T01:58:23.478Z,0.6
2023-01-31T01:59:26.707Z,0.5
2023-01-31T02:00:29.022Z,0.4
2023-01-31T02:01:32.321Z,0.4
2023-01-31T02:02:35.665Z,0.4
2023-01-31T02:03:39.047Z,0.4
2023-01-31T02:04:42.260Z,0.5
2023-01-31T02:05:45.497Z,0.5
2023-01-31T02:06:48.911Z,0.4
2023-01-31T02:07:51.243Z,0.4
2023-01-31T02:08:53.409Z,0.4
2023-01-31T02:09:55.722Z,0.3
2023-01-31T02:10:58.003Z,0.6
2023-01-31T02:12:01.442Z,0.5
2023-01-31T02:13:04.688Z,0.3
2023-01-31T02:14:07.899Z,0.5
2023-01-31T02:15:10.371Z,0.5
2023-01-31T02:16:13.520Z,0.4
2023-01-31T02:17:17.566Z,0.5
2023-01-31T02:18:20.891Z,0.6
2023-01-31T02:19:24.202Z,0.4
2023-01-31T02:20:27.399Z,0.5
2023-01-31T02:21:30.868Z,0.5
2023-01-31T02:22:33.962Z,0.4
2023-01-31T02:23:37.382Z,0.4
2023-01-31T02:24:40.598Z,0.5
2023-01-31T02:25:43.884Z,0.5
2023-01-31T02:26:47.182Z,0.4
2023-01-31T02:27:50.487Z,0.5
2023-01-31T02:28:52.778Z,0.5
2023-01-31T02:29:56.047Z,0.5
2023-01-31T02:30:59.359Z,0.4
2023-01-31T02:32:01.669Z,0.4
2023-01-31T02:33:04.059Z,0.4
2023-01-31T02:34:06.243Z,0.4
2023-01-31T02:35:08.642Z,0.3
2023-01-31T02:36:12.041Z,0.4
2023-01-31T02:37:15.134Z,0.5
2023-01-31T02:38:18.515Z,0.4
2023-01-31T02:39:21.841Z,0.4
2023-01-31T02:40:25.155Z,0.4
2023-01-31T02:41:28.464Z,0.4
2023-01-31T02:42:31.678Z,0.4
2023-01-31T02:43:34.913Z,0.4
2023-01-31T02:44:38.200Z,0.4
2023-01-31T02:45:41.476Z,0.4
2023-01-31T02:46:44.816Z,0.6
2023-01-31T02:47:48.117Z,0.4
2023-01-31T02:48:50.527Z,0.4
2023-01-31T02:49:53.646Z,0.5
2023-01-31T02:50:57.003Z,0.4
2023-01-31T02:52:00.288Z,0.5
2023-01-31T02:53:03.716Z,0.4
2023-01-31T02:54:06.965Z,0.3
2023-01-31T02:55:10.102Z,0.4
2023-01-31T02:56:12.411Z,0.5
2023-01-31T02:57:14.851Z,0.3
2023-01-31T02:58:18.179Z,0.3
2023-01-31T02:59:21.003Z,0.5
2023-01-31T03:00:23.130Z,0.4
2023-01-31T03:01:26.394Z,0.6
2023-01-31T03:02:29.875Z,0.4
2023-01-31T03:03:32.984Z,0.5
2023-01-31T03:04:36.422Z,0.7
2023-01-31T03:05:39.558Z,0.7
2023-01-31T03:06:42.977Z,0.6
2023-01-31T03:07:46.277Z,0.5
2023-01-31T03:08:49.559Z,0.5
2023-01-31T03:09:52.912Z,0.5
2023-01-31T03:10:56.028Z,0.5
2023-01-31T03:11:59.525Z,0.5
2023-01-31T03:13:02.609Z,0.3
2023-01-31T03:14:04.910Z,0.5
2023-01-31T03:15:08.362Z,0.4
2023-01-31T03:16:11.506Z,0.5
2023-01-31T03:17:14.920Z,0.5
2023-01-31T03:18:18.161Z,0.4
2023-01-31T03:19:21.497Z,0.5
2023-01-31T03:20:24.717Z,0.4
2023-01-31T03:21:28.020Z,0.4
2023-01-31T03:22:31.410Z,0.4
2023-01-31T03:23:34.659Z,0.4
2023-01-31T03:24:38.024Z,0.5
2023-01-31T03:25:40.312Z,0.5
2023-01-31T03:26:42.467Z,0.5
2023-01-31T03:27:44.857Z,0.4
2023-01-31T03:28:47.219Z,0.5
2023-01-31T03:29:50.404Z,0.3
2023-01-31T03:30:53.655Z,0.4
2023-01-31T03:33:00.333Z,0.4
2023-01-31T03:34:03.607Z,0.4
2023-01-31T03:35:06.928Z,0.4
2023-01-31T03:36:10.225Z,0.3
2023-01-31T03:37:13.485Z,0.5
2023-01-31T03:38:16.793Z,0.4
2023-01-31T03:39:20.125Z,0.4
2023-01-31T03:40:24.301Z,0.4
2023-01-31T03:41:27.417Z,0.3
2023-01-31T03:42:29.669Z,0.4
2023-01-31T03:43:32.966Z,0.4
2023-01-31T03:44:36.347Z,0.5
2023-01-31T03:45:39.588Z,0.4
2023-01-31T03:46:42.799Z,0.6
2023-01-31T03:47:46.092Z,0.6
2023-01-31T03:48:49.520Z,0.5
2023-01-31T03:49:52.744Z,0.6
2023-01-31T03:50:55.052Z,0.5
2023-01-31T03:51:57.433Z,0.6
2023-01-31T03:52:59.628Z,0.5
2023-01-31T03:54:01.920Z,0.5
2023-01-31T03:55:05.270Z,0.5
2023-01-31T03:56:08.659Z,0.4
2023-01-31T03:57:11.906Z,0.4
2023-01-31T03:58:15.211Z,0.6
2023-01-31T03:59:18.402Z,0.5
2023-01-31T04:00:21.818Z,0.4
2023-01-31T04:01:25.142Z,0.5
2023-01-31T04:02:28.411Z,0.6
2023-01-31T04:03:31.610Z,0.5
2023-01-31T04:04:34.945Z,0.5
2023-01-31T04:05:38.121Z,0.4
2023-01-31T04:06:41.579Z,0.5
2023-01-31T04:07:43.780Z,0.4
2023-01-31T04:08:47.032Z,0.5
2023-01-31T04:09:50.527Z,0.5
2023-01-31T04:10:53.742Z,0.5
2023-01-31T04:11:57.055Z,0.4
2023-01-31T04:13:00.363Z,0.4
2023-01-31T04:14:03.658Z,0.6
2023-01-31T04:15:05.912Z,0.4
2023-01-31T04:16:08.364Z,0.5
2023-01-31T04:17:11.409Z,0.4
2023-01-31T04:18:13.783Z,0.3
2023-01-31T04:19:16.147Z,0.4
2023-01-31T04:20:19.413Z,0.4
2023-01-31T04:21:22.787Z,0.3
2023-01-31T04:22:26.000Z,0.4
2023-01-31T04:23:29.268Z,0.3
2023-01-31T04:24:32.559Z,0.5
2023-01-31T04:25:35.767Z,0.4
2023-01-31T04:26:39.187Z,0.4
2023-01-31T04:27:42.369Z,0.4
2023-01-31T04:28:45.760Z,0.4
2023-01-31T04:29:48.947Z,0.5
2023-01-31T04:30:52.233Z,0.6
2023-01-31T04:31:55.515Z,0.4
2023-01-31T04:32:57.893Z,0.4
2023-01-31T04:34:01.157Z,0.4
2023-01-31T04:35:04.504Z,0.5
2023-01-31T04:36:07.836Z,0.5
2023-01-31T04:37:11.006Z,0.6
2023-01-31T04:38:14.383Z,0.5
2023-01-31T04:39:18.617Z,0.5
2023-01-31T04:40:21.504Z,0.5
2023-01-31T04:41:23.682Z,0.7
2023-01-31T04:42:26.047Z,0.6
2023-01-31T04:43:28.311Z,0.4
2023-01-31T04:44:31.597Z,0.5
2023-01-31T04:45:34.909Z,0.5
2023-01-31T04:46:38.192Z,0.4
2023-01-31T04:47:41.627Z,0.4
2023-01-31T04:48:44.936Z,0.4
2023-01-31T04:49:48.037Z,0.3
2023-01-31T04:50:51.449Z,0.4
2023-01-31T04:51:54.732Z,0.5
2023-01-31T04:54:01.431Z,0.4
2023-01-31T04:55:04.528Z,0.4
2023-01-31T04:56:07.955Z,0.4
2023-01-31T04:57:10.121Z,0.5
2023-01-31T04:58:13.569Z,0.4
2023-01-31T04:59:16.690Z,0.3
2023-01-31T05:00:19.991Z,0.4
2023-01-31T05:01:23.412Z,0.5
2023-01-31T05:02:26.622Z,0.5
2023-01-31T05:03:29.931Z,0.4
2023-01-31T05:04:33.172Z,0.4
2023-01-31T05:05:35.567Z,0.3
2023-01-31T05:06:37.870Z,0.4
2023-01-31T05:07:41.226Z,0.4
2023-01-31T05:08:43.527Z,0.3
2023-01-31T05:09:45.829Z,0.5
2023-01-31T05:10:49.127Z,0.4
2023-01-31T05:11:52.348Z,0.4
2023-01-31T05:12:55.676Z,0.4
2023-01-31T05:13:59.026Z,0.4
2023-01-31T05:15:02.153Z,0.4
2023-01-31T05:16:05.531Z,0.5
2023-01-31T05:17:08.857Z,0.5
2023-01-31T05:18:12.103Z,0.6
2023-01-31T05:19:15.406Z,0.6
2023-01-31T05:20:18.731Z,0.5
2023-01-31T05:21:21.912Z,0.5
2023-01-31T05:22:25.299Z,0.6
2023-01-31T05:23:27.588Z,0.4
2023-01-31T05:24:30.812Z,0.6
2023-01-31T05:25:34.239Z,0.6
2023-01-31T05:26:37.445Z,0.8
2023-01-31T05:27:40.686Z,0.6
2023-01-31T05:28:44.109Z,0.4
2023-01-31T05:29:47.279Z,0.5
2023-01-31T05:31:52.906Z,0.5
2023-01-31T05:32:55.270Z,0.4
2023-01-31T05:33:57.674Z,0.4
2023-01-31T05:34:59.985Z,0.5
2023-01-31T05:36:02.264Z,0.5
2023-01-31T05:37:05.590Z,0.5
2023-01-31T05:38:08.837Z,0.4
2023-01-31T05:39:11.991Z,0.4
2023-01-31T05:40:15.437Z,0.5
2023-01-31T05:41:19.000Z,0.3
2023-01-31T05:42:22.300Z,0.5
2023-01-31T05:43:25.482Z,0.4
2023-01-31T05:44:28.912Z,0.5
2023-01-31T05:45:32.126Z,0.4
2023-01-31T05:46:34.473Z,0.4
2023-01-31T05:47:37.786Z,0.5
2023-01-31T05:48:41.044Z,0.5
2023-01-31T05:49:44.411Z,0.4
2023-01-31T05:50:47.664Z,0.4
2023-01-31T05:51:50.849Z,0.5
2023-01-31T05:52:54.236Z,0.5
2023-01-31T05:53:57.457Z,0.6
2023-01-31T05:55:00.802Z,0.5
2023-01-31T05:56:04.123Z,0.5
2023-01-31T05:57:06.323Z,0.6
2023-01-31T05:58:08.686Z,0.4
2023-01-31T05:59:11.110Z,0.6
2023-01-31T06:00:13.176Z,0.6
2023-01-31T06:01:16.635Z,0.5
2023-01-31T06:02:19.951Z,0.6
2023-01-31T06:03:23.261Z,0.5
2023-01-31T06:04:26.532Z,0.5
2023-01-31T06:05:29.692Z,0.5
2023-01-31T06:06:33.084Z,0.5
2023-01-31T06:07:36.379Z,0.5
2023-01-31T06:08:39.680Z,0.4
2023-01-31T06:09:42.950Z,0.4
2023-01-31T06:10:46.232Z,0.3
2023-01-31T06:11:49.537Z,0.5
2023-01-31T06:12:52.839Z,0.4
2023-01-31T06:13:55.051Z,0.5
2023-01-31T06:14:58.288Z,0.3
2023-01-31T06:16:01.709Z,0.4
2023-01-31T06:17:04.922Z,0.4
2023-01-31T06:18:08.269Z,0.3
2023-01-31T06:19:11.528Z,0.3
2023-01-31T06:20:14.857Z,0.3
2023-01-31T06:21:17.309Z,0.3
2023-01-31T06:22:19.448Z,0.4
2023-01-31T06:23:22.860Z,0.3
2023-01-31T06:24:25.982Z,0.3
2023-01-31T06:25:28.273Z,0.4
2023-01-31T06:26:30.684Z,0.4
2023-01-31T06:27:33.958Z,0.4
2023-01-31T06:28:37.250Z,0.3
2023-01-31T06:29:40.627Z,0.3
2023-01-31T06:30:43.864Z,0.3
2023-01-31T06:31:47.095Z,0.3
2023-01-31T06:32:50.390Z,0.4
2023-01-31T06:33:53.795Z,0.4
2023-01-31T06:34:57.045Z,0.4
2023-01-31T06:36:00.227Z,0.4
2023-01-31T06:37:03.501Z,0.3
2023-01-31T06:38:06.910Z,0.4
2023-01-31T06:39:10.245Z,0.3
2023-01-31T06:40:12.496Z,0.3
2023-01-31T06:41:15.808Z,0.4
2023-01-31T06:42:19.291Z,0.4
2023-01-31T06:43:22.492Z,0.5
2023-01-31T06:44:25.887Z,0.5
2023-01-31T06:45:29.067Z,0.4
2023-01-31T06:46:32.503Z,0.4
2023-01-31T06:47:34.827Z,0.5
2023-01-31T06:48:37.037Z,0.4
2023-01-31T06:49:40.527Z,0.5
2023-01-31T06:50:42.635Z,0.5
2023-01-31T06:51:45.016Z,0.4
2023-01-31T06:52:48.269Z,0.4
2023-01-31T06:53:51.600Z,0.4
2023-01-31T06:54:54.769Z,0.3
2023-01-31T06:55:58.154Z,0.4
2023-01-31T06:57:01.550Z,0.3
2023-01-31T06:58:04.715Z,0.4
2023-01-31T06:59:08.073Z,0.3
2023-01-31T07:00:11.228Z,0.3
2023-01-31T07:01:14.594Z,0.3
2023-01-31T07:02:17.834Z,0.3
2023-01-31T07:03:21.231Z,0.4
2023-01-31T07:04:24.486Z,0.3
2023-01-31T07:05:26.781Z,0.4
2023-01-31T07:06:30.098Z,0.3
2023-01-31T07:07:33.291Z,0.3
2023-01-31T07:08:36.665Z,0.5
2023-01-31T07:09:39.973Z,0.4
2023-01-31T07:10:43.294Z,0.5
2023-01-31T07:11:46.552Z,0.4
2023-01-31T07:12:48.843Z,0.3
2023-01-31T07:13:51.113Z,0.3
2023-01-31T07:14:53.548Z,0.3
2023-01-31T07:15:55.765Z,0.3
2023-01-31T07:16:59.002Z,0.3
2023-01-31T07:18:02.288Z,0.3
2023-01-31T07:19:05.733Z,0.4
2023-01-31T07:20:09.061Z,0.3
2023-01-31T07:21:12.287Z,0.4
2023-01-31T07:22:15.590Z,0.4
2023-01-31T07:23:19.427Z,0.3
2023-01-31T07:24:22.743Z,0.4
2023-01-31T07:25:25.971Z,0.3
2023-01-31T07:26:29.333Z,0.4
2023-01-31T07:27:32.555Z,0.4
2023-01-31T07:28:35.924Z,0.3
2023-01-31T07:29:39.236Z,0.3
2023-01-31T07:30:41.478Z,0.2
2023-01-31T07:31:44.736Z,0.3
2023-01-31T07:32:48.142Z,0.3
2023-01-31T07:33:51.407Z,0.1
2023-01-31T07:34:54.637Z,0.4
2023-01-31T07:35:57.918Z,0.4
2023-01-31T07:37:00.384Z,0.3
2023-01-31T07:38:02.611Z,0.3
2023-01-31T07:39:05.883Z,0.3
2023-01-31T07:40:08.309Z,0.3
2023-01-31T07:41:10.535Z,0.3
2023-01-31T07:42:13.772Z,0.3
2023-01-31T07:43:17.188Z,0.4
2023-01-31T07:44:20.385Z,0.4
2023-01-31T07:45:23.728Z,0.4
2023-01-31T07:46:26.903Z,0.3
2023-01-31T07:47:30.345Z,0.2
2023-01-31T07:48:33.575Z,0.3
2023-01-31T07:49:36.813Z,0.3
2023-01-31T07:50:40.131Z,0.4
2023-01-31T07:51:43.349Z,0.3
2023-01-31T07:52:46.679Z,0.3
2023-01-31T07:53:50.070Z,0.3
2023-01-31T07:54:52.361Z,0.3
2023-01-31T07:55:55.673Z,0.2
2023-01-31T07:56:58.982Z,0.3
2023-01-31T07:58:02.121Z,0.4
2023-01-31T07:59:05.427Z,0.3
2023-01-31T08:00:08.756Z,0.3
2023-01-31T08:01:12.178Z,0.5
2023-01-31T08:02:14.498Z,0.3
2023-01-31T08:03:16.802Z,0.3
2023-01-31T08:04:20.106Z,0.4
2023-01-31T08:05:22.860Z,0.5
2023-01-31T08:06:25.090Z,0.4
2023-01-31T08:07:28.255Z,0.4
2023-01-31T08:08:31.594Z,0.3
2023-01-31T08:09:34.932Z,0.4
2023-01-31T08:10:38.267Z,0.4
2023-01-31T08:11:41.558Z,0.4
2023-01-31T08:12:44.842Z,0.4
2023-01-31T08:13:48.199Z,0.4
2023-01-31T08:14:51.521Z,0.5
2023-01-31T08:15:54.678Z,0.5
2023-01-31T08:16:57.888Z,0.4
2023-01-31T08:18:01.198Z,0.6
2023-01-31T08:19:04.525Z,0.9
2023-01-31T08:20:06.864Z,1
2023-01-31T08:21:10.122Z,0.9
2023-01-31T08:22:13.407Z,1
2023-01-31T08:23:16.794Z,0.8
2023-01-31T08:24:20.055Z,0.8
2023-01-31T08:25:23.408Z,0.8
2023-01-31T08:26:26.752Z,0.7
2023-01-31T08:27:28.976Z,0.7
2023-01-31T08:28:31.152Z,0.8
2023-01-31T08:29:33.629Z,0.7
2023-01-31T08:30:35.912Z,0.8
2023-01-31T08:31:39.099Z,0.5
2023-01-31T08:32:42.355Z,0.7
2023-01-31T08:33:45.751Z,0.7
2023-01-31T08:34:49.030Z,0.6
2023-01-31T08:35:52.340Z,0.7
2023-01-31T08:36:55.591Z,0.7
2023-01-31T08:37:58.980Z,0.6
2023-01-31T08:39:02.292Z,0.7
2023-01-31T08:40:05.503Z,1.4
2023-01-31T08:41:08.704Z,0.7
2023-01-31T08:42:11.985Z,1.1
2023-01-31T08:43:15.440Z,1
2023-01-31T08:44:17.718Z,1.4
2023-01-31T08:45:21.109Z,1.7
2023-01-31T08:46:24.306Z,1.8
2023-01-31T08:47:27.539Z,1.7
2023-01-31T08:48:30.761Z,2.2
2023-01-31T08:49:34.057Z,1.5
2023-01-31T08:50:37.451Z,1.4
2023-01-31T08:51:39.813Z,1.5
2023-01-31T08:52:42.062Z,1.9
2023-01-31T08:53:44.367Z,1.7
2023-01-31T08:54:46.590Z,2.2
2023-01-31T08:55:50.061Z,1.7
2023-01-31T08:56:53.185Z,1.9
2023-01-31T08:57:56.595Z,2
2023-01-31T08:58:59.868Z,1.9
2023-01-31T09:01:06.473Z,1.8
2023-01-31T09:02:09.689Z,1.9
2023-01-31T09:03:13.020Z,1.7
2023-01-31T09:04:16.397Z,2
2023-01-31T09:05:20.072Z,1.9
2023-01-31T09:06:23.529Z,1.9
2023-01-31T09:07:26.687Z,1.9
2023-01-31T09:08:28.974Z,1.9
2023-01-31T09:09:32.281Z,1.7
2023-01-31T09:10:35.624Z,1.8
2023-01-31T09:11:38.945Z,2.09
2023-01-31T09:12:42.154Z,2
2023-01-31T09:13:45.426Z,1.5
2023-01-31T09:14:48.839Z,1.7
2023-01-31T09:15:52.150Z,1.9
2023-01-31T09:16:54.470Z,1.7
2023-01-31T09:17:56.635Z,1.5
2023-01-31T09:19:00.132Z,1.7
2023-01-31T09:20:03.413Z,1.9
2023-01-31T09:21:06.668Z,1.3
2023-01-31T09:22:09.970Z,1.4
2023-01-31T09:23:13.214Z,2.3
2023-01-31T09:24:16.551Z,1.6
2023-01-31T09:25:20.321Z,1.5
2023-01-31T09:26:23.567Z,1.8
2023-01-31T09:27:26.910Z,2.09
2023-01-31T09:28:30.242Z,2.5
2023-01-31T09:29:33.502Z,2.3
2023-01-31T09:30:36.822Z,2.8
2023-01-31T09:31:39.104Z,2.7
2023-01-31T09:32:42.265Z,2.6
2023-01-31T09:33:45.558Z,2.8
2023-01-31T09:34:48.967Z,2.9
2023-01-31T09:35:52.271Z,2.5
2023-01-31T09:36:55.550Z,2.4
2023-01-31T09:37:58.720Z,2.2
2023-01-31T09:39:01.165Z,2.09
2023-01-31T09:40:03.412Z,2
2023-01-31T09:41:05.690Z,2.2
2023-01-31T09:42:07.978Z,2
2023-01-31T09:43:11.327Z,2.09
2023-01-31T09:44:13.586Z,2
2023-01-31T09:46:19.184Z,2.09
2023-01-31T09:47:22.449Z,1.5
2023-01-31T09:48:26.644Z,1.9
2023-01-31T09:49:29.797Z,1.9
2023-01-31T09:50:33.131Z,1.7
2023-01-31T09:51:36.449Z,1.8
2023-01-31T09:52:39.837Z,1.8
2023-01-31T09:53:43.077Z,1.8
2023-01-31T09:54:46.400Z,1.4
2023-01-31T09:55:49.542Z,1.7
2023-01-31T09:56:52.916Z,1.8
2023-01-31T09:57:56.242Z,1.6
2023-01-31T09:58:58.623Z,1.5
2023-01-31T10:00:01.729Z,1.8
2023-01-31T10:01:05.034Z,1.5
2023-01-31T10:02:08.303Z,1.5
2023-01-31T10:03:11.633Z,1.3
2023-01-31T10:04:14.920Z,1.2
2023-01-31T10:05:18.414Z,1.6
2023-01-31T10:06:21.622Z,1.3
2023-01-31T10:07:23.803Z,1.5
2023-01-31T10:08:26.234Z,1.4
2023-01-31T10:09:28.424Z,1.4
2023-01-31T10:10:30.732Z,1.6
2023-01-31T10:11:34.151Z,1.3
2023-01-31T10:12:37.396Z,0.8
2023-01-31T10:13:40.745Z,1
2023-01-31T10:14:43.997Z,1.3
2023-01-31T10:15:47.321Z,1.1
2023-01-31T10:16:50.655Z,1.3
2023-01-31T10:17:53.886Z,1.3
2023-01-31T10:18:57.173Z,1.3
2023-01-31T10:20:00.426Z,1.2
2023-01-31T10:21:03.666Z,1.1
2023-01-31T10:22:06.969Z,1.3
2023-01-31T10:23:10.316Z,1.3
2023-01-31T10:24:12.585Z,1.1
2023-01-31T10:25:15.895Z,1.3
2023-01-31T10:26:19.131Z,1.3
2023-01-31T10:27:22.410Z,1.1
2023-01-31T10:28:25.849Z,1.1
2023-01-31T10:29:29.141Z,1.2
2023-01-31T10:30:32.284Z,1.1
2023-01-31T10:31:34.772Z,1.2
2023-01-31T10:32:36.898Z,1
2023-01-31T10:33:39.371Z,1.1
2023-01-31T10:34:41.574Z,1.3
2023-01-31T10:35:44.877Z,1.1
2023-01-31T10:36:48.267Z,1.1
2023-01-31T10:37:51.509Z,1.2
2023-01-31T10:38:54.690Z,0.9
2023-01-31T10:39:58.121Z,1
2023-01-31T10:41:01.333Z,1
2023-01-31T10:42:04.745Z,0.9
2023-01-31T10:43:07.993Z,1
2023-01-31T10:44:11.301Z,0.9
2023-01-31T10:45:14.511Z,1
2023-01-31T10:46:17.767Z,0.9
2023-01-31T10:47:21.170Z,1
2023-01-31T10:48:23.850Z,0.8
2023-01-31T10:49:27.131Z,0.9
2023-01-31T10:50:30.405Z,1
2023-01-31T10:51:33.810Z,0.9
2023-01-31T10:52:36.948Z,1
2023-01-31T10:53:40.342Z,1.1
2023-01-31T10:54:43.635Z,0.9
2023-01-31T10:55:45.955Z,0.9
2023-01-31T10:56:48.298Z,1.1
2023-01-31T10:57:51.485Z,0.8
2023-01-31T10:58:53.830Z,0.7
2023-01-31T10:59:56.090Z,0.7
2023-01-31T11:00:59.409Z,0.9
2023-01-31T11:02:02.628Z,0.9
2023-01-31T11:03:06.114Z,1
2023-01-31T11:04:09.300Z,0.9
2023-01-31T11:05:12.599Z,0.8
2023-01-31T11:06:15.954Z,0.8
2023-01-31T11:07:19.307Z,0.8
2023-01-31T11:08:22.502Z,0.7
2023-01-31T11:09:25.849Z,0.9
2023-01-31T11:10:28.999Z,0.9
2023-01-31T11:11:32.296Z,0.9
2023-01-31T11:12:35.556Z,1
2023-01-31T11:13:37.881Z,0.7
2023-01-31T11:14:41.324Z,0.9
2023-01-31T11:15:44.527Z,0.8
2023-01-31T11:16:47.721Z,0.7
2023-01-31T11:17:51.195Z,0.7
2023-01-31T11:18:54.462Z,0.7
2023-01-31T11:19:57.685Z,0.9
2023-01-31T11:21:00.033Z,1
2023-01-31T11:22:02.258Z,0.7
2023-01-31T11:23:05.692Z,0.9
2023-01-31T11:24:08.001Z,0.9
2023-01-31T11:25:10.214Z,0.8
2023-01-31T11:26:13.433Z,0.8
2023-01-31T11:27:16.821Z,0.8
2023-01-31T11:28:20.174Z,0.9
2023-01-31T11:29:23.928Z,0.7
2023-01-31T11:30:27.213Z,0.8
2023-01-31T11:31:30.689Z,0.7
2023-01-31T11:32:33.879Z,0.8
2023-01-31T11:33:37.186Z,0.6
2023-01-31T11:34:40.439Z,0.8
2023-01-31T11:35:43.776Z,0.8
2023-01-31T11:36:47.009Z,0.7
2023-01-31T11:37:50.334Z,0.8
2023-01-31T11:38:52.699Z,0.6
2023-01-31T11:39:55.853Z,0.6
2023-01-31T11:40:59.257Z,0.8
2023-01-31T11:42:02.524Z,0.7
2023-01-31T11:43:05.790Z,0.8
2023-01-31T11:44:09.133Z,0.7
2023-01-31T11:45:12.476Z,0.6
2023-01-31T11:46:14.626Z,0.6
2023-01-31T11:47:17.065Z,0.7
2023-01-31T11:48:19.342Z,0.6
2023-01-31T11:49:21.659Z,0.6
2023-01-31T11:50:24.997Z,0.9
2023-01-31T11:51:28.166Z,0.7
2023-01-31T11:52:31.554Z,0.8
2023-01-31T11:53:34.841Z,0.8
2023-01-31T11:54:38.194Z,0.8
2023-01-31T11:55:41.471Z,0.7
2023-01-31T11:56:44.761Z,0.9
2023-01-31T11:57:47.951Z,0.9
2023-01-31T11:58:51.301Z,0.7
2023-01-31T11:59:54.545Z,0.8
2023-01-31T12:00:57.785Z,0.8
2023-01-31T12:02:01.122Z,0.7
2023-01-31T12:03:03.409Z,0.7
2023-01-31T12:04:06.856Z,0.9
2023-01-31T12:05:09.954Z,0.8
2023-01-31T12:06:13.397Z,0.8
2023-01-31T12:07:16.594Z,0.7
2023-01-31T12:08:19.830Z,0.7
2023-01-31T12:09:23.313Z,0.7
2023-01-31T12:10:27.262Z,0.8
2023-01-31T12:11:29.725Z,0.7
2023-01-31T12:12:32.002Z,0.7
2023-01-31T12:13:35.297Z,0.6
2023-01-31T12:14:37.623Z,0.7
2023-01-31T12:15:39.831Z,0.9
2023-01-31T12:16:43.151Z,1
2023-01-31T12:17:46.416Z,0.6
2023-01-31T12:18:49.873Z,0.7
2023-01-31T12:19:53.147Z,0.8
2023-01-31T12:20:56.421Z,0.9
2023-01-31T12:21:59.696Z,0.8
2023-01-31T12:23:02.974Z,0.6
2023-01-31T12:24:06.105Z,0.8
2023-01-31T12:25:09.645Z,0.7
2023-01-31T12:26:12.785Z,0.8
2023-01-31T12:27:16.020Z,0.8
2023-01-31T12:28:19.340Z,0.6
2023-01-31T12:29:21.697Z,0.7
2023-01-31T12:30:24.872Z,0.6
2023-01-31T12:31:28.157Z,0.7
2023-01-31T12:32:31.526Z,0.8
2023-01-31T12:33:34.891Z,0.8
2023-01-31T12:34:38.067Z,0.7
2023-01-31T12:35:41.473Z,0.7
2023-01-31T12:36:43.832Z,0.6
2023-01-31T12:37:46.092Z,0.8
2023-01-31T12:38:48.347Z,0.8
2023-01-31T12:39:50.649Z,0.8
2023-01-31T12:40:53.980Z,0.9
2023-01-31T12:41:57.317Z,0.7
2023-01-31T12:43:00.623Z,0.7
2023-01-31T12:44:03.883Z,0.7
2023-01-31T12:45:07.194Z,0.7
2023-01-31T12:46:10.426Z,0.6
2023-01-31T12:47:13.712Z,0.5
2023-01-31T12:48:16.998Z,0.6
2023-01-31T12:49:19.319Z,0.7
2023-01-31T12:50:22.732Z,0.6
2023-01-31T12:51:26.002Z,0.6
2023-01-31T12:52:29.104Z,0.6
2023-01-31T12:53:32.545Z,0.7
2023-01-31T12:54:35.696Z,0.7
2023-01-31T12:55:38.961Z,0.6
2023-01-31T12:56:42.410Z,0.7
2023-01-31T12:57:45.551Z,0.6
2023-01-31T12:58:48.905Z,0.7
2023-01-31T12:59:52.315Z,0.7
2023-01-31T13:00:54.596Z,0.8
2023-01-31T13:01:56.936Z,0.6
2023-01-31T13:02:59.208Z,0.6
2023-01-31T13:04:01.538Z,0.6
2023-01-31T13:05:04.662Z,0.6
2023-01-31T13:06:07.963Z,0.6
2023-01-31T13:07:11.436Z,0.5
2023-01-31T13:08:14.714Z,0.6
2023-01-31T13:09:17.839Z,0.7
2023-01-31T13:10:21.681Z,0.7
2023-01-31T13:11:24.938Z,0.5
2023-01-31T13:12:28.345Z,0.6
2023-01-31T13:13:31.486Z,0.7
2023-01-31T13:14:34.801Z,0.5
2023-01-31T13:16:41.351Z,0.7
2023-01-31T13:17:43.814Z,0.7
2023-01-31T13:18:47.098Z,0.6
2023-01-31T13:19:50.427Z,0.6
2023-01-31T13:20:53.732Z,0.6
2023-01-31T13:21:57.031Z,0.6
2023-01-31T13:23:00.201Z,0.4
2023-01-31T13:24:03.570Z,0.6
2023-01-31T13:25:06.833Z,0.5
2023-01-31T13:26:09.179Z,0.6
2023-01-31T13:27:11.486Z,0.5
2023-01-31T13:28:13.661Z,0.6
2023-01-31T13:29:16.029Z,0.6
2023-01-31T13:30:19.237Z,0.6
2023-01-31T13:31:22.705Z,0.6
2023-01-31T13:32:25.959Z,0.6
2023-01-31T13:33:29.306Z,0.6
2023-01-31T13:34:32.551Z,0.6
2023-01-31T13:35:35.811Z,0.6
2023-01-31T13:36:39.023Z,0.7
2023-01-31T13:37:42.484Z,0.7
2023-01-31T13:38:45.579Z,0.6
2023-01-31T13:39:48.884Z,0.6
2023-01-31T13:41:55.564Z,0.7
2023-01-31T13:42:57.797Z,0.6
2023-01-31T13:44:01.177Z,0.8
2023-01-31T13:45:04.380Z,0.8
2023-01-31T13:46:07.813Z,0.6
2023-01-31T13:47:11.059Z,0.7
2023-01-31T13:48:14.227Z,0.7
2023-01-31T13:49:17.629Z,0.6
2023-01-31T13:50:20.858Z,0.7
2023-01-31T13:51:23.294Z,0.5
2023-01-31T13:52:25.548Z,0.8
2023-01-31T13:53:28.887Z,0.7
2023-01-31T13:54:31.241Z,0.6
2023-01-31T13:55:33.319Z,0.7
2023-01-31T13:56:36.772Z,0.6
2023-01-31T13:57:40.021Z,0.7
2023-01-31T13:58:43.366Z,0.7
2023-01-31T13:59:46.684Z,0.6
2023-01-31T14:00:49.952Z,0.7
2023-01-31T14:01:53.075Z,0.8
2023-01-31T14:02:56.555Z,0.8
2023-01-31T14:03:59.714Z,0.8
2023-01-31T14:05:03.062Z,0.6
2023-01-31T14:06:06.439Z,0.6
2023-01-31T14:07:09.613Z,0.6
2023-01-31T14:08:12.844Z,0.7
2023-01-31T14:09:15.259Z,0.7
2023-01-31T14:10:18.500Z,0.7
2023-01-31T14:11:22.112Z,0.6
2023-01-31T14:12:25.443Z,0.7
2023-01-31T14:13:28.818Z,0.6
2023-01-31T14:14:32.000Z,0.6
2023-01-31T14:15:35.351Z,0.5
2023-01-31T14:16:37.673Z,0.6
2023-01-31T14:17:39.956Z,0.6
2023-01-31T14:18:42.141Z,0.5
2023-01-31T14:19:44.558Z,0.6
2023-01-31T14:20:47.895Z,0.7
2023-01-31T14:21:51.192Z,0.7
2023-01-31T14:22:54.316Z,0.7
2023-01-31T14:23:57.765Z,0.7
2023-01-31T14:25:00.920Z,0.5
2023-01-31T14:26:04.333Z,0.7
2023-01-31T14:27:07.657Z,0.7
2023-01-31T14:28:10.939Z,1
2023-01-31T14:29:14.241Z,1.1
2023-01-31T14:30:17.457Z,1.2
2023-01-31T14:31:20.778Z,0.4
2023-01-31T14:32:24.089Z,0.7
2023-01-31T14:33:26.300Z,0.8
2023-01-31T14:34:29.692Z,0.6
2023-01-31T14:35:33.087Z,0.7
2023-01-31T14:36:36.270Z,0.6
2023-01-31T14:37:39.560Z,1
2023-01-31T14:38:42.787Z,0.8
2023-01-31T14:39:46.173Z,0.6